createdAt,value
2023-04-17T00:01:43.621Z,96332.44
2023-04-17T00:04:13.166Z,96336.03
2023-04-17T00:06:43.460Z,96332.56
2023-04-17T00:09:12.225Z,96327.69
2023-04-17T00:11:41.663Z,96326.53
2023-04-17T00:14:12.400Z,96332.03
2023-04-17T00:16:40.704Z,96330.88
2023-04-17T00:19:09.170Z,96334.00
2023-04-17T00:21:37.059Z,96326.38
2023-04-17T00:24:05.031Z,96330.88
2023-04-17T00:26:34.524Z,96332.75
2023-04-17T00:29:03.773Z,96330.03
2023-04-17T00:31:31.844Z,96327.19
2023-04-17T00:34:01.376Z,96325.22
2023-04-17T00:36:31.741Z,96322.06
2023-04-17T00:38:59.790Z,96325.31
2023-04-17T00:41:35.191Z,96334.38
2023-04-17T00:44:04.468Z,96327.69
2023-04-17T00:46:32.488Z,96335.59
2023-04-17T00:49:01.778Z,96325.38
2023-04-17T00:51:30.027Z,96327.69
2023-04-17T00:53:59.846Z,96323.88
2023-04-17T00:56:29.734Z,96329.75
2023-04-17T00:58:59.358Z,96330.13
2023-04-17T01:01:28.762Z,96320.25
2023-04-17T01:03:59.905Z,96319.78
2023-04-17T01:06:28.121Z,96323.00
2023-04-17T01:08:56.246Z,96319.84
2023-04-17T01:11:24.204Z,96308.69
2023-04-17T01:13:52.480Z,96304.31
2023-04-17T01:16:20.873Z,96306.41
2023-04-17T01:18:50.582Z,96313.47
2023-04-17T01:21:18.519Z,96296.91
2023-04-17T01:23:48.649Z,96307.94
2023-04-17T01:26:21.065Z,96310.38
2023-04-17T01:28:53.565Z,96303.69
2023-04-17T01:31:22.141Z,96298.84
2023-04-17T01:33:50.989Z,96306.22
2023-04-17T01:36:19.571Z,96305.53
2023-04-17T01:38:47.481Z,96307.06
2023-04-17T01:41:15.375Z,96303.06
2023-04-17T01:43:46.571Z,96315.03
2023-04-17T01:46:14.964Z,96307.13
2023-04-17T01:48:42.965Z,96316.56
2023-04-17T01:51:10.828Z,96318.16
2023-04-17T01:53:41.445Z,96317.31
2023-04-17T01:56:09.375Z,96319.75
2023-04-17T01:58:39.447Z,96313.41
2023-04-17T02:01:08.681Z,96312.66
2023-04-17T02:03:36.757Z,96313.47
2023-04-17T02:06:08.028Z,96311.16
2023-04-17T02:08:35.955Z,96311.13
2023-04-17T02:11:05.253Z,96311.91
2023-04-17T02:13:33.208Z,96314.66
2023-04-17T02:16:01.190Z,96313.53
2023-04-17T02:18:30.611Z,96314.72
2023-04-17T02:20:58.471Z,96314.25
2023-04-17T02:23:26.401Z,96310.97
2023-04-17T02:25:54.316Z,96319.00
2023-04-17T02:28:22.189Z,96305.53
2023-04-17T02:30:50.062Z,96317.34
2023-04-17T02:33:17.954Z,96322.47
2023-04-17T02:35:47.218Z,96324.47
2023-04-17T02:38:17.542Z,96329.50
2023-04-17T02:40:45.447Z,96325.31
2023-04-17T02:43:14.116Z,96323.78
2023-04-17T02:45:41.972Z,96325.31
2023-04-17T02:48:10.323Z,96324.56
2023-04-17T02:50:41.057Z,96325.53
2023-04-17T02:53:10.391Z,96326.75
2023-04-17T02:55:38.361Z,96326.28
2023-04-17T02:58:06.199Z,96330.16
2023-04-17T03:00:34.184Z,96319.09
2023-04-17T03:03:03.218Z,96324.19
2023-04-17T03:05:31.371Z,96318.25
2023-04-17T03:07:59.678Z,96330.03
2023-04-17T03:10:28.977Z,96322.97
2023-04-17T03:12:56.939Z,96323.31
2023-04-17T03:15:24.890Z,96315.84
2023-04-17T03:17:52.877Z,96314.66
2023-04-17T03:20:21.116Z,96323.75
2023-04-17T03:22:49.022Z,96311.47
2023-04-17T03:25:16.941Z,96319.78
2023-04-17T03:27:47.816Z,96312.47
2023-04-17T03:30:15.871Z,96319.69
2023-04-17T03:32:43.769Z,96318.16
2023-04-17T03:35:11.717Z,96321.31
2023-04-17T03:37:39.611Z,96312.75
2023-04-17T03:40:09.216Z,96319.50
2023-04-17T03:42:37.591Z,96326.03
2023-04-17T03:45:08.233Z,96332.41
2023-04-17T03:47:36.146Z,96333.19
2023-04-17T03:50:04.249Z,96332.28
2023-04-17T03:52:32.174Z,96325.97
2023-04-17T03:55:00.054Z,96306.06
2023-04-17T03:57:27.991Z,96330.69
2023-04-17T03:59:55.933Z,96339.72
2023-04-17T04:02:25.417Z,96317.50
2023-04-17T04:04:53.680Z,96343.66
2023-04-17T04:07:21.913Z,96346.84
2023-04-17T04:09:49.805Z,96341.34
2023-04-17T04:12:17.940Z,96350.72
2023-04-17T04:14:45.993Z,96355.84
2023-04-17T04:17:13.977Z,96342.38
2023-04-17T04:19:43.571Z,96342.72
2023-04-17T04:22:13.635Z,96349.50
2023-04-17T04:24:42.704Z,96345.94
2023-04-17T04:27:12.972Z,96349.75
2023-04-17T04:29:45.571Z,96349.72
2023-04-17T04:32:13.602Z,96354.47
2023-04-17T04:34:44.677Z,96354.13
2023-04-17T04:37:15.405Z,96354.59
2023-04-17T04:39:43.676Z,96354.47
2023-04-17T04:42:11.566Z,96354.44
2023-04-17T04:44:39.415Z,96350.88
2023-04-17T04:47:07.389Z,96343.69
2023-04-17T04:49:35.254Z,96350.78
2023-04-17T04:52:04.575Z,96354.91
2023-04-17T04:54:32.639Z,96360.00
2023-04-17T04:57:00.584Z,96379.72
2023-04-17T04:59:28.487Z,96365.22
2023-04-17T05:01:56.612Z,96364.03
2023-04-17T05:04:24.991Z,96346.44
2023-04-17T05:06:52.957Z,96378.28
2023-04-17T05:09:22.235Z,96366.47
2023-04-17T05:11:50.165Z,96357.22
2023-04-17T05:14:18.143Z,96387.81
2023-04-17T05:16:46.437Z,96357.53
2023-04-17T05:19:14.590Z,96380.66
2023-04-17T05:21:42.651Z,96376.63
2023-04-17T05:24:10.737Z,96369.53
2023-04-17T05:26:40.098Z,96384.72
2023-04-17T05:29:09.091Z,96387.88
2023-04-17T05:31:37.392Z,96392.19
2023-04-17T05:34:05.371Z,96394.22
2023-04-17T05:36:33.648Z,96396.59
2023-04-17T05:39:01.595Z,96391.03
2023-04-17T05:41:31.156Z,96379.09
2023-04-17T05:44:00.745Z,96383.84
2023-04-17T05:46:28.761Z,96383.28
2023-04-17T05:48:56.834Z,96395.47
2023-04-17T05:51:25.181Z,96390.28
2023-04-17T05:53:53.118Z,96388.91
2023-04-17T05:56:21.056Z,96389.97
2023-04-17T05:58:48.951Z,96394.34
2023-04-17T06:01:22.530Z,96389.75
2023-04-17T06:03:51.139Z,96396.63
2023-04-17T06:06:19.381Z,96384.72
2023-04-17T06:08:47.434Z,96391.47
2023-04-17T06:11:15.829Z,96400.34
2023-04-17T06:13:43.812Z,96398.69
2023-04-17T06:16:11.810Z,96401.50
2023-04-17T06:18:41.561Z,96405.88
2023-04-17T06:21:14.486Z,96413.38
2023-04-17T06:23:42.423Z,96393.56
2023-04-17T06:26:10.954Z,96408.19
2023-04-17T06:28:38.861Z,96404.06
2023-04-17T06:31:06.993Z,96415.66
2023-04-17T06:33:34.987Z,96414.53
2023-04-17T06:36:10.563Z,96413.13
2023-04-17T06:38:38.445Z,96412.47
2023-04-17T06:41:06.492Z,96411.38
2023-04-17T06:43:34.719Z,96415.13
2023-04-17T06:46:02.686Z,96416.84
2023-04-17T06:48:30.682Z,96391.72
2023-04-17T06:50:58.596Z,96394.97
2023-04-17T06:53:28.052Z,96407.41
2023-04-17T06:55:55.947Z,96401.81
2023-04-17T06:58:23.955Z,96406.00
2023-04-17T07:00:51.890Z,96411.13
2023-04-17T07:03:19.932Z,96412.69
2023-04-17T07:05:48.873Z,96419.34
2023-04-17T07:08:18.518Z,96408.91
2023-04-17T07:10:47.851Z,96416.91
2023-04-17T07:13:15.859Z,96403.75
2023-04-17T07:15:43.919Z,96414.44
2023-04-17T07:18:11.962Z,96407.31
2023-04-17T07:20:39.831Z,96422.44
2023-04-17T07:23:07.797Z,96412.06
2023-04-17T07:25:35.790Z,96419.38
2023-04-17T07:28:05.181Z,96430.41
2023-04-17T07:30:33.092Z,96424.19
2023-04-17T07:33:02.481Z,96424.59
2023-04-17T07:35:30.573Z,96416.34
2023-04-17T07:38:01.118Z,96426.88
2023-04-17T07:40:29.942Z,96425.34
2023-04-17T07:42:57.868Z,96426.91
2023-04-17T07:45:28.557Z,96432.25
2023-04-17T07:47:56.624Z,96429.06
2023-04-17T07:50:24.699Z,96430.53
2023-04-17T07:52:53.410Z,96435.03
2023-04-17T07:55:21.468Z,96435.50
2023-04-17T07:57:50.141Z,96448.16
2023-04-17T08:00:19.484Z,96434.97
2023-04-17T08:02:48.978Z,96446.91
2023-04-17T08:05:17.091Z,96446.94
2023-04-17T08:07:45.046Z,96451.75
2023-04-17T08:10:12.913Z,96450.94
2023-04-17T08:12:41.434Z,96455.34
2023-04-17T08:15:10.088Z,96454.81
2023-04-17T08:17:38.053Z,96454.38
2023-04-17T08:20:12.044Z,96459.88
2023-04-17T08:22:41.219Z,96453.66
2023-04-17T08:25:10.891Z,96460.91
2023-04-17T08:27:40.355Z,96454.81
2023-04-17T08:30:12.952Z,96467.66
2023-04-17T08:32:43.473Z,96459.19
2023-04-17T08:35:15.395Z,96463.88
2023-04-17T08:37:47.499Z,96468.69
2023-04-17T08:40:17.158Z,96463.84
2023-04-17T08:42:47.656Z,96460.75
2023-04-17T08:45:16.507Z,96464.41
2023-04-17T08:47:47.532Z,96459.84
2023-04-17T08:50:21.937Z,96470.13
2023-04-17T08:52:52.023Z,96462.97
2023-04-17T08:55:22.361Z,96469.25
2023-04-17T08:57:58.083Z,96470.81
2023-04-17T09:00:27.360Z,96471.97
2023-04-17T09:02:57.677Z,96475.41
2023-04-17T09:05:30.288Z,96484.25
2023-04-17T09:08:10.344Z,96475.16
2023-04-17T09:10:39.465Z,96480.16
2023-04-17T09:13:08.501Z,96467.38
2023-04-17T09:15:37.756Z,96470.66
2023-04-17T09:18:05.864Z,96469.06
2023-04-17T09:20:50.238Z,96472.28
2023-04-17T09:23:18.843Z,96475.16
2023-04-17T09:25:47.315Z,96467.31
2023-04-17T09:28:16.690Z,96469.72
2023-04-17T09:30:44.601Z,96476.09
2023-04-17T09:33:13.042Z,96477.41
2023-04-17T09:35:42.384Z,96475.13
2023-04-17T09:38:10.282Z,96478.97
2023-04-17T09:40:40.006Z,96476.66
2023-04-17T09:43:10.058Z,96469.28
2023-04-17T09:45:42.685Z,96475.75
2023-04-17T09:48:12.599Z,96475.34
2023-04-17T09:50:42.521Z,96470.66
2023-04-17T09:53:10.412Z,96466.28
2023-04-17T09:55:43.469Z,96468.63
2023-04-17T09:58:12.274Z,96472.25
2023-04-17T10:00:42.855Z,96466.69
2023-04-17T10:03:11.397Z,96470.66
2023-04-17T10:05:39.908Z,96465.19
2023-04-17T10:08:09.563Z,96465.22
2023-04-17T10:10:49.218Z,96444.59
2023-04-17T10:13:21.222Z,96432.72
2023-04-17T10:15:50.431Z,96446.91
2023-04-17T10:18:24.220Z,96451.69
2023-04-17T10:20:55.438Z,96449.31
2023-04-17T10:23:33.893Z,96450.91
2023-04-17T10:26:38.953Z,96448.56
2023-04-17T10:29:06.911Z,96436.66
2023-04-17T10:32:24.318Z,96445.38
2023-04-17T10:34:53.540Z,96443.81
2023-04-17T10:37:23.294Z,96439.84
2023-04-17T10:39:56.636Z,96442.22
2023-04-17T10:42:25.738Z,96443.03
2023-04-17T10:45:03.212Z,96437.09
2023-04-17T10:47:33.533Z,96439.84
2023-04-17T10:50:04.339Z,96434.69
2023-04-17T10:52:44.928Z,96431.13
2023-04-17T10:55:18.370Z,96425.59
2023-04-17T10:58:12.986Z,96420.81
2023-04-17T11:00:52.118Z,96418.84
2023-04-17T11:03:24.267Z,96417.56
2023-04-17T11:05:52.538Z,96405.25
2023-04-17T11:08:21.150Z,96407.38
2023-04-17T11:10:55.008Z,96408.69
2023-04-17T11:13:23.109Z,96412.06
2023-04-17T11:15:52.212Z,96408.53
2023-04-17T11:18:22.245Z,96404.19
2023-04-17T11:20:51.238Z,96398.56
2023-04-17T11:23:19.195Z,96387.28
2023-04-17T11:25:47.313Z,96391.94
2023-04-17T11:28:17.135Z,96378.97
2023-04-17T11:30:45.590Z,96397.63
2023-04-17T11:33:21.076Z,96391.25
2023-04-17T11:35:49.467Z,96370.47
2023-04-17T11:38:21.800Z,96361.16
2023-04-17T11:40:52.667Z,96372.34
2023-04-17T11:43:23.979Z,96381.75
2023-04-17T11:45:54.740Z,96376.31
2023-04-17T11:48:24.990Z,96384.94
2023-04-17T11:50:57.341Z,96385.03
2023-04-17T11:53:27.522Z,96361.34
2023-04-17T11:56:15.739Z,96392.69
2023-04-17T11:58:49.839Z,96365.31
2023-04-17T12:01:19.249Z,96390.25
2023-04-17T12:03:48.890Z,96369.22
2023-04-17T12:06:17.127Z,96396.91
2023-04-17T12:08:50.137Z,96385.09
2023-04-17T12:11:24.749Z,96383.53
2023-04-17T12:13:55.427Z,96381.91
2023-04-17T12:16:25.594Z,96387.09
2023-04-17T12:18:54.299Z,96396.25
2023-04-17T12:21:23.855Z,96404.22
2023-04-17T12:23:52.601Z,96401.03
2023-04-17T12:26:20.858Z,96401.75
2023-04-17T12:28:48.761Z,96402.13
2023-04-17T12:31:18.123Z,96406.50
2023-04-17T12:33:46.001Z,96406.50
2023-04-17T12:36:14.080Z,96412.88
2023-04-17T12:38:43.108Z,96409.72
2023-04-17T12:41:11.170Z,96411.31
2023-04-17T12:43:39.010Z,96405.75
2023-04-17T12:46:07.212Z,96414.78
2023-04-17T12:48:37.073Z,96408.03
2023-04-17T12:51:04.961Z,96406.44
2023-04-17T12:53:32.857Z,96409.56
2023-04-17T12:56:00.855Z,96409.94
2023-04-17T12:58:28.740Z,96400.88
2023-04-17T13:00:56.770Z,96406.06
2023-04-17T13:03:24.809Z,96414.03
2023-04-17T13:05:54.208Z,96408.91
2023-04-17T13:08:22.054Z,96420.78
2023-04-17T13:10:49.963Z,96416.03
2023-04-17T13:13:17.787Z,96416.06
2023-04-17T13:15:47.453Z,96420.81
2023-04-17T13:18:15.866Z,96411.72
2023-04-17T13:20:43.846Z,96411.75
2023-04-17T13:23:14.453Z,96413.72
2023-04-17T13:25:42.440Z,96408.94
2023-04-17T13:28:10.314Z,96414.88
2023-04-17T13:30:39.679Z,96412.91
2023-04-17T13:33:07.829Z,96414.09
2023-04-17T13:35:35.969Z,96398.59
2023-04-17T13:38:04.161Z,96403.38
2023-04-17T13:40:33.414Z,96396.28
2023-04-17T13:43:01.401Z,96400.63
2023-04-17T13:45:29.302Z,96395.09
2023-04-17T13:47:57.265Z,96401.81
2023-04-17T13:50:25.173Z,96397.84
2023-04-17T13:52:53.076Z,96392.69
2023-04-17T13:55:20.980Z,96396.63
2023-04-17T13:57:51.092Z,96392.69
2023-04-17T14:00:20.837Z,96390.63
2023-04-17T14:02:48.834Z,96383.03
2023-04-17T14:05:17.040Z,96379.88
2023-04-17T14:07:45.830Z,96367.09
2023-04-17T14:10:14.691Z,96376.91
2023-04-17T14:12:42.581Z,96382.66
2023-04-17T14:15:13.043Z,96377.56
2023-04-17T14:17:43.071Z,96384.31
2023-04-17T14:20:12.285Z,96389.06
2023-04-17T14:22:40.194Z,96390.72
2023-04-17T14:25:08.682Z,96393.91
2023-04-17T14:27:37.048Z,96402.94
2023-04-17T14:30:05.668Z,96396.53
2023-04-17T14:32:35.055Z,96398.25
2023-04-17T14:35:02.973Z,96405.31
2023-04-17T14:37:30.956Z,96393.38
2023-04-17T14:39:58.832Z,96403.59
2023-04-17T14:42:26.684Z,96398.41
2023-04-17T14:44:54.579Z,96403.97
2023-04-17T14:47:22.556Z,96399.63
2023-04-17T14:49:52.098Z,96395.31
2023-04-17T14:52:20.060Z,96395.78
2023-04-17T14:54:48.037Z,96402.97
2023-04-17T14:57:15.934Z,96404.22
2023-04-17T14:59:44.413Z,96398.31
2023-04-17T15:02:12.628Z,96396.00
2023-04-17T15:04:42.453Z,96396.09
2023-04-17T15:07:11.953Z,96384.28
2023-04-17T15:09:39.894Z,96390.69
2023-04-17T15:12:08.270Z,96393.03
2023-04-17T15:14:36.155Z,96396.19
2023-04-17T15:17:06.838Z,96400.19
2023-04-17T15:19:34.941Z,96397.03
2023-04-17T15:22:02.922Z,96394.66
2023-04-17T15:24:32.743Z,96395.44
2023-04-17T15:27:00.670Z,96401.38
2023-04-17T15:29:28.787Z,96402.97
2023-04-17T15:31:56.769Z,96398.22
2023-04-17T15:34:25.027Z,96398.63
2023-04-17T15:36:52.986Z,96397.06
2023-04-17T15:39:20.956Z,96403.31
2023-04-17T15:41:50.940Z,96400.97
2023-04-17T15:44:18.954Z,96399.34
2023-04-17T15:46:46.933Z,96400.75
2023-04-17T15:49:14.788Z,96405.09
2023-04-17T15:51:42.674Z,96409.25
2023-04-17T15:54:13.458Z,96403.66
2023-04-17T15:56:42.073Z,96411.56
2023-04-17T15:59:11.565Z,96417.03
2023-04-17T16:01:39.755Z,96411.50
2023-04-17T16:04:07.818Z,96420.78
2023-04-17T16:06:36.289Z,96415.81
2023-04-17T16:09:04.572Z,96418.03
2023-04-17T16:11:32.471Z,96421.25
2023-04-17T16:14:00.362Z,96418.03
2023-04-17T16:16:29.900Z,96431.00
2023-04-17T16:18:57.918Z,96419.13
2023-04-17T16:21:26.845Z,96421.78
2023-04-17T16:23:54.717Z,96418.59
2023-04-17T16:26:23.259Z,96414.91
2023-04-17T16:28:51.195Z,96405.06
2023-04-17T16:31:22.582Z,96426.59
2023-04-17T16:33:51.975Z,96429.69
2023-04-17T16:36:20.228Z,96412.91
2023-04-17T16:38:48.094Z,96406.84
2023-04-17T16:41:16.172Z,96416.72
2023-04-17T16:43:44.044Z,96410.72
2023-04-17T16:46:22.161Z,96400.00
2023-04-17T16:48:57.482Z,96425.03
2023-04-17T16:51:26.194Z,96419.50
2023-04-17T16:53:54.189Z,96429.31
2023-04-17T16:56:22.202Z,96421.03
2023-04-17T16:58:50.142Z,96423.47
2023-04-17T17:01:18.092Z,96429.66
2023-04-17T17:03:46.589Z,96434.88
2023-04-17T17:06:15.923Z,96430.03
2023-04-17T17:08:46.812Z,96426.91
2023-04-17T17:11:15.663Z,96428.84
2023-04-17T17:13:43.844Z,96430.78
2023-04-17T17:16:11.765Z,96425.28
2023-04-17T17:18:39.686Z,96433.94
2023-04-17T17:21:08.034Z,96431.16
2023-04-17T17:23:37.984Z,96428.44
2023-04-17T17:26:06.362Z,96424.19
2023-04-17T17:28:35.100Z,96425.66
2023-04-17T17:31:04.203Z,96431.69
2023-04-17T17:33:32.427Z,96430.13
2023-04-17T17:36:00.735Z,96419.75
2023-04-17T17:38:29.056Z,96440.59
2023-04-17T17:40:58.354Z,96434.53
2023-04-17T17:43:27.796Z,96441.31
2023-04-17T17:45:55.796Z,96430.69
2023-04-17T17:48:23.697Z,96431.56
2023-04-17T17:50:55.103Z,96441.03
2023-04-17T17:53:26.155Z,96433.88
2023-04-17T17:55:56.463Z,96445.34
2023-04-17T17:58:28.148Z,96442.06
2023-04-17T18:00:56.107Z,96442.84
2023-04-17T18:03:24.214Z,96436.66
2023-04-17T18:05:52.735Z,96439.50
2023-04-17T18:08:20.715Z,96439.41
2023-04-17T18:10:48.715Z,96445.09
2023-04-17T18:13:16.634Z,96436.06
2023-04-17T18:15:45.998Z,96436.06
2023-04-17T18:18:18.374Z,96445.69
2023-04-17T18:20:52.346Z,96440.47
2023-04-17T18:23:20.257Z,96440.41
2023-04-17T18:25:58.023Z,96447.63
2023-04-17T18:28:25.965Z,96440.25
2023-04-17T18:30:55.542Z,96445.94
2023-04-17T18:33:23.470Z,96447.28
2023-04-17T18:35:51.462Z,96446.72
2023-04-17T18:38:19.346Z,96439.91
2023-04-17T18:40:47.307Z,96453.41
2023-04-17T18:43:15.423Z,96457.66
2023-04-17T18:45:43.362Z,96451.91
2023-04-17T18:48:12.635Z,96458.56
2023-04-17T18:50:40.588Z,96464.66
2023-04-17T18:53:08.468Z,96471.56
2023-04-17T18:55:38.261Z,96461.91
2023-04-17T18:58:06.914Z,96479.53
2023-04-17T19:00:36.251Z,96479.63
2023-04-17T19:03:04.697Z,96477.28
2023-04-17T19:05:34.100Z,96473.28
2023-04-17T19:08:02.045Z,96475.53
2023-04-17T19:10:30.109Z,96481.44
2023-04-17T19:12:58.044Z,96477.66
2023-04-17T19:15:26.113Z,96472.50
2023-04-17T19:17:54.094Z,96475.28
2023-04-17T19:20:23.340Z,96481.88
2023-04-17T19:22:52.677Z,96477.53
2023-04-17T19:25:20.533Z,96479.69
2023-04-17T19:27:48.446Z,96475.53
2023-04-17T19:30:16.401Z,96470.72
2023-04-17T19:32:44.598Z,96476.13
2023-04-17T19:35:12.524Z,96470.53
2023-04-17T19:37:40.449Z,96465.41
2023-04-17T19:40:21.302Z,96469.25
2023-04-17T19:42:49.793Z,96469.91
2023-04-17T19:45:17.803Z,96461.44
2023-04-17T19:47:45.837Z,96472.03
2023-04-17T19:50:13.777Z,96466.94
2023-04-17T19:52:43.097Z,96467.03
2023-04-17T19:55:13.045Z,96471.97
2023-04-17T19:57:44.676Z,96466.94
2023-04-17T20:00:14.484Z,96456.78
2023-04-17T20:02:42.851Z,96456.06
2023-04-17T20:05:11.285Z,96457.53
2023-04-17T20:07:39.143Z,96460.28
2023-04-17T20:10:08.310Z,96456.25
2023-04-17T20:12:37.553Z,96452.50
2023-04-17T20:15:06.192Z,96462.06
2023-04-17T20:17:34.098Z,96459.63
2023-04-17T20:20:02.030Z,96454.38
2023-04-17T20:22:29.931Z,96454.91
2023-04-17T20:24:57.820Z,96448.16
2023-04-17T20:27:26.545Z,96453.13
2023-04-17T20:29:55.856Z,96453.88
2023-04-17T20:32:24.481Z,96447.22
2023-04-17T20:34:52.398Z,96454.56
2023-04-17T20:37:21.881Z,96446.28
2023-04-17T20:39:51.583Z,96455.66
2023-04-17T20:42:19.484Z,96449.75
2023-04-17T20:44:47.523Z,96451.56
2023-04-17T20:47:16.797Z,96447.25
2023-04-17T20:49:44.770Z,96453.41
2023-04-17T20:52:12.668Z,96462.53
2023-04-17T20:54:40.615Z,96440.75
2023-04-17T20:57:08.550Z,96449.38
2023-04-17T20:59:37.319Z,96447.31
2023-04-17T21:02:05.453Z,96443.75
2023-04-17T21:04:35.007Z,96431.75
2023-04-17T21:07:03.176Z,96439.53
2023-04-17T21:09:31.184Z,96439.59
2023-04-17T21:11:59.094Z,96443.31
2023-04-17T21:14:28.048Z,96432.13
2023-04-17T21:16:58.427Z,96434.16
2023-04-17T21:19:27.780Z,96443.81
2023-04-17T21:21:59.184Z,96435.53
2023-04-17T21:24:27.128Z,96433.22
2023-04-17T21:26:58.570Z,96437.09
2023-04-17T21:29:27.992Z,96442.66
2023-04-17T21:31:57.126Z,96444.84
2023-04-17T21:34:25.582Z,96437.13
2023-04-17T21:36:54.232Z,96439.91
2023-04-17T21:39:23.654Z,96449.59
2023-04-17T21:41:51.597Z,96434.34
2023-04-17T21:44:19.635Z,96440.94
2023-04-17T21:46:47.605Z,96438.19
2023-04-17T21:49:15.512Z,96437.78
2023-04-17T21:51:43.580Z,96436.81
2023-04-17T21:54:11.700Z,96437.75
2023-04-17T21:56:41.229Z,96440.78
2023-04-17T21:59:09.580Z,96447.59
2023-04-17T22:01:37.655Z,96438.09
2023-04-17T22:04:05.996Z,96436.88
2023-04-17T22:06:36.055Z,96438.91
2023-04-17T22:09:04.934Z,96436.44
2023-04-17T22:11:33.274Z,96435.44
2023-04-17T22:14:02.538Z,96427.16
2023-04-17T22:16:30.657Z,96429.13
2023-04-17T22:18:58.662Z,96419.09
2023-04-17T22:21:27.006Z,96423.06
2023-04-17T22:23:54.968Z,96430.63
2023-04-17T22:26:22.863Z,96417.88
2023-04-17T22:28:50.880Z,96423.47
2023-04-17T22:31:21.112Z,96427.44
2023-04-17T22:33:49.073Z,96436.09
2023-04-17T22:36:16.956Z,96429.75
2023-04-17T22:38:44.829Z,96433.69
2023-04-17T22:41:12.715Z,96433.69
2023-04-17T22:43:40.594Z,96431.84
2023-04-17T22:46:08.560Z,96431.75
2023-04-17T22:48:37.841Z,96435.78
2023-04-17T22:51:06.049Z,96428.69
2023-04-17T22:53:34.770Z,96429.00
2023-04-17T22:56:04.128Z,96419.38
2023-04-17T22:58:33.470Z,96420.03
2023-04-17T23:01:01.528Z,96418.38
2023-04-17T23:03:29.428Z,96428.38
2023-04-17T23:05:58.928Z,96432.03
2023-04-17T23:08:26.961Z,96433.94
2023-04-17T23:10:59.760Z,96428.44
2023-04-17T23:13:28.290Z,96423.03
2023-04-17T23:15:56.630Z,96419.78
2023-04-17T23:18:25.037Z,96419.53
2023-04-17T23:20:53.004Z,96413.53
2023-04-17T23:23:22.329Z,96411.00
2023-04-17T23:25:50.748Z,96418.03
2023-04-17T23:28:18.629Z,96415.66
2023-04-17T23:30:46.599Z,96409.53
2023-04-17T23:33:14.481Z,96410.41
2023-04-17T23:35:42.418Z,96414.88
2023-04-17T23:38:10.498Z,96406.97
2023-04-17T23:40:42.889Z,96412.22
2023-04-17T23:43:11.050Z,96400.31
2023-04-17T23:45:39.059Z,96403.78
2023-04-17T23:48:07.182Z,96404.59
2023-04-17T23:50:35.440Z,96402.78
2023-04-17T23:53:03.360Z,96403.59
